createdAt,value
2022-10-21T00:00:59.578Z,12.40
2022-10-21T00:03:39.559Z,12.80
2022-10-21T00:06:09.640Z,12.70
2022-10-21T00:08:38.777Z,13.10
2022-10-21T00:11:08.531Z,13.10
2022-10-21T00:13:39.874Z,13.50
2022-10-21T00:16:14.977Z,13.90
2022-10-21T00:18:45.614Z,14.10
2022-10-21T00:21:17.490Z,14.40
2022-10-21T00:23:45.775Z,14.60
2022-10-21T00:26:14.946Z,14.30
2022-10-21T00:28:43.345Z,14.50
2022-10-21T00:31:14.664Z,13.50
2022-10-21T00:33:43.141Z,13.40
2022-10-21T00:36:15.153Z,13.90
2022-10-21T00:38:46.574Z,12.30
2022-10-21T00:41:16.631Z,13.10
2022-10-21T00:43:58.798Z,12.70
2022-10-21T00:46:39.727Z,13.90
2022-10-21T00:49:16.615Z,12.20
2022-10-21T00:51:48.190Z,13.70
2022-10-21T00:54:18.062Z,13.80
2022-10-21T00:56:47.857Z,13.40
2022-10-21T00:59:16.675Z,13.00
2022-10-21T01:01:44.609Z,13.10
2022-10-21T01:04:12.554Z,15.00
2022-10-21T01:06:41.093Z,15.70
2022-10-21T01:09:09.392Z,13.40
2022-10-21T01:11:43.780Z,14.10
2022-10-21T01:17:45.748Z,12.10
2022-10-21T01:20:26.008Z,13.30
2022-10-21T01:23:27.327Z,12.50
2022-10-21T01:26:04.602Z,14.10
2022-10-21T01:28:51.606Z,14.10
2022-10-21T01:31:47.063Z,13.90
2022-10-21T01:34:24.263Z,14.00
2022-10-21T01:37:01.269Z,12.10
2022-10-21T01:39:54.332Z,13.20
2022-10-21T01:42:34.685Z,13.40
2022-10-21T01:45:19.155Z,14.20
2022-10-21T01:47:51.521Z,14.80
2022-10-21T01:50:26.442Z,14.60
2022-10-21T01:53:06.821Z,14.50
2022-10-21T01:55:37.368Z,15.80
2022-10-21T01:58:09.668Z,14.60
2022-10-21T02:00:39.419Z,15.50
2022-10-21T02:03:12.027Z,16.00
2022-10-21T02:05:40.294Z,15.80
2022-10-21T02:08:08.453Z,15.60
2022-10-21T02:10:41.988Z,15.00
2022-10-21T02:13:13.208Z,14.90
2022-10-21T02:15:43.327Z,15.10
2022-10-21T02:18:24.586Z,14.60
2022-10-21T02:20:59.755Z,13.60
2022-10-21T02:23:49.444Z,13.20
2022-10-21T02:26:17.901Z,13.70
2022-10-21T02:28:46.817Z,13.00
2022-10-21T02:31:39.748Z,14.20
2022-10-21T02:34:30.272Z,15.60
2022-10-21T02:37:31.729Z,17.00
2022-10-21T02:40:13.528Z,16.20
2022-10-21T02:42:50.958Z,16.60
2022-10-21T02:45:19.446Z,16.60
2022-10-21T02:47:48.411Z,15.50
2022-10-21T02:50:16.801Z,15.20
2022-10-21T02:52:44.741Z,16.40
2022-10-21T02:55:14.963Z,17.00
2022-10-21T02:57:42.869Z,15.50
2022-10-21T03:00:11.782Z,15.60
2022-10-21T03:02:39.740Z,15.30
2022-10-21T03:05:09.461Z,16.20
2022-10-21T03:07:37.631Z,15.90
2022-10-21T03:10:06.129Z,16.70
2022-10-21T03:12:34.127Z,15.40
2022-10-21T03:15:02.325Z,15.30
2022-10-21T03:17:30.356Z,17.50
2022-10-21T03:19:58.381Z,14.90
2022-10-21T03:22:26.496Z,14.30
2022-10-21T03:24:54.302Z,16.00
2022-10-21T03:27:22.868Z,16.60
2022-10-21T03:29:50.866Z,18.10
2022-10-21T03:32:18.852Z,17.10
2022-10-21T03:34:46.994Z,17.30
2022-10-21T03:37:14.979Z,16.90
2022-10-21T03:39:43.591Z,18.10
2022-10-21T03:42:11.351Z,17.40
2022-10-21T03:44:40.110Z,14.30
2022-10-21T03:47:08.629Z,16.00
2022-10-21T03:49:36.437Z,16.80
2022-10-21T03:52:04.445Z,17.60
2022-10-21T03:54:32.478Z,15.70
2022-10-21T03:57:00.867Z,15.50
2022-10-21T03:59:28.781Z,15.50
2022-10-21T04:01:57.946Z,16.90
2022-10-21T04:04:25.933Z,15.30
2022-10-21T04:06:55.126Z,16.10
2022-10-21T04:09:23.087Z,16.30
2022-10-21T04:11:51.414Z,16.90
2022-10-21T04:14:20.238Z,15.90
2022-10-21T04:16:53.567Z,16.50
2022-10-21T04:19:30.286Z,16.70
2022-10-21T04:21:59.638Z,17.60
2022-10-21T04:24:27.889Z,17.60
2022-10-21T04:26:56.071Z,17.40
2022-10-21T04:29:24.654Z,17.00
2022-10-21T04:31:52.745Z,17.40
2022-10-21T04:34:20.802Z,18.00
2022-10-21T04:36:49.344Z,19.10
2022-10-21T04:39:18.141Z,17.90
2022-10-21T04:41:48.362Z,19.20
2022-10-21T04:44:16.264Z,18.60
2022-10-21T04:46:45.258Z,18.60
2022-10-21T04:49:13.708Z,17.90
2022-10-21T04:51:42.221Z,18.20
2022-10-21T04:54:10.254Z,16.40
2022-10-21T04:56:39.196Z,16.00
2022-10-21T04:59:07.704Z,17.30
2022-10-21T05:01:35.978Z,17.40
2022-10-21T05:04:03.966Z,18.10
2022-10-21T05:06:32.130Z,17.70
2022-10-21T05:09:00.382Z,18.20
2022-10-21T05:11:28.899Z,19.20
2022-10-21T05:13:56.991Z,18.60
2022-10-21T05:16:25.316Z,19.10
2022-10-21T05:18:53.603Z,18.80
2022-10-21T05:21:21.689Z,19.90
2022-10-21T05:23:50.258Z,17.80
2022-10-21T05:26:18.828Z,18.30
2022-10-21T05:28:47.190Z,18.30
2022-10-21T05:31:15.302Z,18.70
2022-10-21T05:33:43.269Z,20.10
2022-10-21T05:36:11.454Z,22.80
2022-10-21T05:38:39.657Z,25.00
2022-10-21T05:41:08.229Z,22.60
2022-10-21T05:43:38.775Z,22.30
2022-10-21T05:46:08.785Z,19.10
2022-10-21T05:48:37.948Z,21.50
2022-10-21T05:51:06.747Z,22.20
2022-10-21T05:53:35.298Z,22.30
2022-10-21T05:56:06.791Z,22.50
2022-10-21T05:58:36.016Z,26.50
2022-10-21T06:01:04.421Z,22.90
2022-10-21T06:03:35.026Z,21.00
2022-10-21T06:06:05.756Z,18.90
2022-10-21T06:08:35.910Z,19.70
2022-10-21T06:11:13.784Z,19.60
2022-10-21T06:13:43.007Z,18.00
2022-10-21T06:16:13.140Z,18.60
2022-10-21T06:18:42.270Z,19.30
2022-10-21T06:21:11.397Z,18.70
2022-10-21T06:23:40.362Z,19.50
2022-10-21T06:26:13.767Z,20.10
2022-10-21T06:28:43.630Z,20.70
2022-10-21T06:31:18.958Z,19.60
2022-10-21T06:33:47.988Z,19.90
2022-10-21T06:36:17.168Z,19.00
2022-10-21T06:38:49.172Z,17.10
2022-10-21T06:41:20.329Z,20.10
2022-10-21T06:43:48.866Z,21.10
2022-10-21T06:46:17.829Z,19.80
2022-10-21T06:48:45.738Z,19.10
2022-10-21T06:51:20.489Z,19.00
2022-10-21T06:53:56.679Z,18.30
2022-10-21T06:56:26.695Z,19.10
2022-10-21T06:58:57.865Z,19.10
2022-10-21T07:01:48.122Z,18.30
2022-10-21T07:04:21.630Z,18.80
2022-10-21T07:06:49.676Z,20.30
2022-10-21T07:09:18.066Z,19.30
2022-10-21T07:11:46.928Z,19.90
2022-10-21T07:14:15.274Z,20.50
2022-10-21T07:16:43.766Z,21.50
2022-10-21T07:19:11.779Z,23.00
2022-10-21T07:21:39.999Z,22.20
2022-10-21T07:24:08.103Z,22.40
2022-10-21T07:26:36.069Z,23.90
2022-10-21T07:29:04.965Z,21.50
2022-10-21T07:31:36.610Z,21.80
2022-10-21T07:34:06.626Z,20.70
2022-10-21T07:36:40.640Z,19.30
2022-10-21T07:39:12.899Z,19.40
2022-10-21T07:41:44.869Z,19.70
2022-10-21T07:44:13.558Z,18.80
2022-10-21T07:46:42.911Z,17.70
2022-10-21T07:49:12.781Z,20.20
2022-10-21T07:51:41.628Z,22.20
2022-10-21T07:54:10.295Z,21.30
2022-10-21T07:56:45.397Z,21.10
2022-10-21T07:59:14.151Z,23.60
2022-10-21T08:04:24.846Z,27.30
2022-10-21T08:06:53.560Z,24.40
2022-10-21T08:09:22.151Z,23.30
2022-10-21T08:11:50.161Z,22.90
2022-10-21T08:14:18.298Z,21.50
2022-10-21T08:16:46.409Z,21.80
2022-10-21T08:19:20.402Z,19.30
2022-10-21T08:21:50.561Z,19.50
2022-10-21T08:24:18.905Z,19.20
2022-10-21T08:26:47.176Z,20.10
2022-10-21T08:29:15.567Z,19.30
2022-10-21T08:31:43.520Z,18.10
2022-10-21T08:34:11.678Z,18.80
2022-10-21T08:36:40.392Z,19.10
2022-10-21T08:39:09.376Z,18.80
2022-10-21T08:41:54.500Z,18.30
2022-10-21T08:44:31.733Z,17.10
2022-10-21T08:47:11.384Z,18.50
2022-10-21T08:50:05.502Z,18.80
2022-10-21T08:52:45.371Z,18.30
2022-10-21T08:55:37.922Z,16.70
2022-10-21T08:58:06.696Z,17.40
2022-10-21T09:00:44.922Z,18.20
2022-10-21T09:03:13.677Z,17.80
2022-10-21T09:05:51.272Z,19.80
2022-10-21T09:08:42.096Z,18.40
2022-10-21T09:11:21.863Z,16.50
2022-10-21T09:14:05.300Z,17.40
2022-10-21T09:16:58.309Z,16.90
2022-10-21T09:19:44.759Z,17.50
2022-10-21T09:22:45.038Z,16.20
2022-10-21T09:25:24.743Z,16.40
2022-10-21T09:27:56.972Z,17.10
2022-10-21T09:30:26.323Z,16.60
2022-10-21T09:33:00.272Z,16.20
2022-10-21T09:35:35.687Z,16.20
2022-10-21T09:38:27.047Z,16.90
2022-10-21T09:41:03.723Z,16.00
2022-10-21T09:43:33.257Z,15.80
2022-10-21T09:46:01.656Z,16.30
2022-10-21T09:49:16.276Z,15.50
2022-10-21T09:51:38.569Z,15.50
2022-10-21T09:54:17.240Z,13.90
2022-10-21T09:57:12.186Z,15.00
2022-10-21T09:59:51.972Z,14.10
2022-10-21T10:02:48.419Z,14.90
2022-10-21T10:05:44.500Z,15.00
2022-10-21T10:08:33.324Z,15.70
2022-10-21T10:11:05.558Z,14.40
2022-10-21T10:13:34.987Z,14.00
2022-10-21T10:16:27.067Z,14.00
2022-10-21T10:19:24.257Z,13.90
2022-10-21T10:22:28.917Z,15.00
2022-10-21T10:25:17.235Z,13.80
2022-10-21T10:28:00.684Z,14.20
2022-10-21T10:30:35.754Z,14.50
2022-10-21T10:33:09.007Z,13.70
2022-10-21T10:35:38.983Z,14.50
2022-10-21T10:38:07.356Z,14.20
2022-10-21T10:40:43.543Z,14.40
2022-10-21T10:43:20.899Z,14.40
2022-10-21T10:45:56.775Z,15.80
2022-10-21T10:48:43.507Z,14.50
2022-10-21T10:51:32.986Z,15.00
2022-10-21T10:54:08.894Z,15.70
2022-10-21T10:56:51.437Z,15.30
2022-10-21T10:59:32.834Z,14.80
2022-10-21T11:02:40.186Z,14.70
2022-10-21T11:05:31.789Z,15.40
2022-10-21T11:08:07.151Z,14.60
2022-10-21T11:11:12.557Z,13.80
2022-10-21T11:13:42.294Z,13.80
2022-10-21T11:16:45.109Z,13.60
2022-10-21T11:19:40.357Z,14.00
2022-10-21T11:22:17.758Z,14.40
2022-10-21T11:25:05.644Z,13.80
2022-10-21T11:27:55.407Z,14.80
2022-10-21T11:30:48.615Z,13.40
2022-10-21T11:33:19.697Z,13.40
2022-10-21T11:36:10.334Z,14.30
2022-10-21T11:39:19.305Z,14.50
2022-10-21T11:42:06.863Z,13.50
2022-10-21T11:44:53.821Z,13.90
2022-10-21T11:47:32.175Z,14.40
2022-10-21T11:50:21.413Z,13.70
2022-10-21T11:53:16.157Z,14.10
2022-10-21T11:56:27.721Z,13.80
2022-10-21T11:59:21.170Z,13.80
2022-10-21T12:02:01.826Z,13.40
2022-10-21T12:04:45.189Z,14.00
2022-10-21T12:07:31.869Z,14.50
2022-10-21T12:10:10.263Z,14.00
2022-10-21T12:12:46.844Z,14.20
2022-10-21T12:15:21.536Z,14.40
2022-10-21T12:17:50.713Z,15.30
2022-10-21T12:20:28.354Z,15.60
2022-10-21T12:23:04.994Z,14.40
2022-10-21T12:26:18.301Z,14.00
2022-10-21T12:28:58.686Z,14.60
2022-10-21T12:31:49.376Z,14.70
2022-10-21T12:34:18.647Z,14.20
2022-10-21T12:36:52.014Z,14.50
2022-10-21T12:39:35.680Z,14.20
2022-10-21T12:42:13.788Z,13.80
2022-10-21T12:44:50.280Z,13.90
2022-10-21T12:47:29.010Z,15.60
2022-10-21T12:50:24.885Z,14.90
2022-10-21T12:53:27.859Z,14.60
2022-10-21T12:56:02.630Z,14.20
2022-10-21T12:58:44.398Z,14.60
2022-10-21T13:01:47.152Z,14.00
2022-10-21T13:04:35.667Z,14.60
2022-10-21T13:07:15.890Z,14.30
2022-10-21T13:10:09.574Z,14.70
2022-10-21T13:12:38.737Z,14.30
2022-10-21T13:15:23.181Z,13.60
2022-10-21T13:17:56.530Z,13.90
2022-10-21T13:20:25.716Z,14.00
2022-10-21T13:23:15.873Z,14.10
2022-10-21T13:25:45.544Z,14.20
2022-10-21T13:28:14.600Z,14.80
2022-10-21T13:30:50.058Z,13.90
2022-10-21T13:33:23.671Z,13.70
2022-10-21T13:36:03.504Z,14.40
2022-10-21T13:38:37.371Z,14.50
2022-10-21T13:41:20.278Z,14.70
2022-10-21T13:43:55.136Z,14.10
2022-10-21T13:46:40.711Z,14.30
2022-10-21T13:49:34.036Z,13.90
2022-10-21T13:52:06.349Z,14.50
2022-10-21T13:54:36.165Z,14.70
2022-10-21T13:57:08.779Z,14.10
2022-10-21T13:59:37.307Z,14.00
2022-10-21T14:02:05.385Z,14.20
2022-10-21T14:04:40.563Z,14.50
2022-10-21T14:07:18.105Z,14.40
2022-10-21T14:09:50.082Z,15.30
2022-10-21T14:12:33.860Z,14.80
2022-10-21T14:15:07.582Z,13.60
2022-10-21T14:17:42.494Z,14.40
2022-10-21T14:20:18.564Z,15.20
2022-10-21T14:22:54.141Z,15.00
2022-10-21T14:25:25.686Z,16.40
2022-10-21T14:27:59.294Z,15.30
2022-10-21T14:30:32.436Z,13.70
2022-10-21T14:33:03.750Z,13.70
2022-10-21T14:35:32.911Z,14.40
2022-10-21T14:38:22.765Z,14.70
2022-10-21T14:41:05.880Z,14.50
2022-10-21T14:43:44.129Z,15.90
2022-10-21T14:46:22.149Z,16.10
2022-10-21T14:49:04.943Z,16.80
2022-10-21T14:51:39.193Z,17.70
2022-10-21T14:54:21.222Z,16.40
2022-10-21T14:56:51.393Z,16.50
2022-10-21T14:59:26.811Z,15.50
2022-10-21T15:01:59.398Z,17.00
2022-10-21T15:04:42.752Z,16.40
2022-10-21T15:09:58.519Z,17.30
2022-10-21T15:12:27.393Z,15.90
2022-10-21T15:14:58.997Z,15.40
2022-10-21T15:18:14.606Z,15.10
2022-10-21T15:20:58.441Z,15.80
2022-10-21T15:23:39.227Z,16.70
2022-10-21T15:26:26.583Z,16.40
2022-10-21T15:28:57.750Z,16.00
2022-10-21T15:31:29.615Z,15.60
2022-10-21T15:33:59.026Z,15.60
2022-10-21T15:36:28.397Z,16.00
2022-10-21T15:38:57.809Z,18.10
2022-10-21T15:41:29.632Z,19.60
2022-10-21T15:44:05.958Z,21.90
2022-10-21T15:46:42.412Z,20.00
2022-10-21T15:49:25.470Z,28.80
2022-10-21T15:51:54.764Z,30.00
2022-10-21T15:54:24.025Z,31.50
2022-10-21T15:56:55.375Z,31.50
2022-10-21T15:59:31.804Z,29.50
2022-10-21T16:02:01.118Z,32.60
2022-10-21T16:04:30.967Z,37.50
2022-10-21T16:07:06.205Z,38.90
2022-10-21T16:09:35.597Z,34.00
2022-10-21T16:12:06.337Z,40.50
2022-10-21T16:14:36.762Z,37.80
2022-10-21T16:17:05.864Z,43.50
2022-10-21T16:19:34.752Z,45.20
2022-10-21T16:22:04.670Z,48.50
2022-10-21T16:24:34.708Z,55.00
2022-10-21T16:27:04.286Z,53.50
2022-10-21T16:29:33.785Z,49.40
2022-10-21T16:32:02.737Z,56.70
2022-10-21T16:34:31.420Z,92.30
2022-10-21T16:37:01.676Z,77.50
2022-10-21T16:39:30.804Z,75.70
2022-10-21T16:42:02.334Z,77.80
2022-10-21T16:44:31.879Z,79.10
2022-10-21T16:47:00.633Z,78.40
2022-10-21T16:49:29.773Z,85.50
2022-10-21T16:52:01.043Z,77.50
2022-10-21T16:54:29.687Z,69.60
2022-10-21T16:57:01.220Z,79.10
2022-10-21T16:59:45.547Z,98.40
2022-10-21T17:02:40.014Z,106.80
2022-10-21T17:05:13.153Z,98.00
2022-10-21T17:07:42.422Z,98.70
2022-10-21T17:10:11.588Z,95.40
2022-10-21T17:12:44.050Z,93.00
2022-10-21T17:15:20.342Z,84.10
2022-10-21T17:17:49.457Z,81.80
2022-10-21T17:20:18.742Z,89.10
2022-10-21T17:22:47.454Z,86.00
2022-10-21T17:25:23.737Z,61.90
2022-10-21T17:27:52.738Z,51.30
2022-10-21T17:30:27.004Z,58.10
2022-10-21T17:33:00.616Z,39.10
2022-10-21T17:35:30.907Z,40.90
2022-10-21T17:37:59.775Z,52.70
2022-10-21T17:40:29.042Z,57.80
2022-10-21T17:43:03.812Z,39.80
2022-10-21T17:45:34.038Z,42.30
2022-10-21T17:48:03.327Z,46.20
2022-10-21T17:50:33.544Z,41.10
2022-10-21T17:53:02.644Z,37.20
2022-10-21T17:55:32.042Z,44.00
2022-10-21T17:58:01.874Z,40.70
2022-10-21T18:00:31.027Z,34.70
2022-10-21T18:03:03.511Z,34.40
2022-10-21T18:05:34.155Z,33.70
2022-10-21T18:08:03.988Z,39.00
2022-10-21T18:10:48.516Z,39.30
2022-10-21T18:13:19.006Z,31.30
2022-10-21T18:15:51.814Z,27.60
2022-10-21T18:18:24.301Z,24.70
2022-10-21T18:20:56.859Z,25.10
2022-10-21T18:23:26.127Z,24.40
2022-10-21T18:25:54.986Z,22.60
2022-10-21T18:28:24.283Z,21.20
2022-10-21T18:30:55.879Z,21.70
2022-10-21T18:33:25.730Z,21.80
2022-10-21T18:35:54.995Z,21.60
2022-10-21T18:38:28.677Z,21.50
2022-10-21T18:41:15.258Z,21.10
2022-10-21T18:43:53.319Z,21.50
2022-10-21T18:46:24.418Z,21.00
2022-10-21T18:48:54.340Z,20.10
2022-10-21T18:51:24.411Z,21.30
2022-10-21T18:53:57.697Z,21.80
2022-10-21T18:56:29.358Z,21.30
2022-10-21T18:59:03.046Z,20.70
2022-10-21T19:01:32.906Z,20.60
2022-10-21T19:04:03.059Z,21.40
2022-10-21T19:06:45.950Z,20.80
2022-10-21T19:09:17.475Z,20.40
2022-10-21T19:11:50.488Z,21.40
2022-10-21T19:14:20.400Z,21.70
2022-10-21T19:16:50.690Z,22.00
2022-10-21T19:19:26.117Z,21.80
2022-10-21T19:21:56.346Z,20.40
2022-10-21T19:24:34.545Z,22.30
2022-10-21T19:27:04.603Z,20.10
2022-10-21T19:29:34.039Z,21.40
2022-10-21T19:32:04.711Z,21.10
2022-10-21T19:34:39.329Z,22.80
2022-10-21T19:37:11.634Z,20.50
2022-10-21T19:39:43.037Z,19.90
2022-10-21T19:42:13.878Z,21.20
2022-10-21T19:44:43.872Z,23.00
2022-10-21T19:47:12.786Z,20.50
2022-10-21T19:49:43.125Z,22.10
2022-10-21T19:52:13.204Z,21.90
2022-10-21T19:54:43.483Z,23.90
2022-10-21T19:57:14.328Z,22.10
2022-10-21T19:59:43.737Z,22.30
2022-10-21T20:02:14.233Z,22.40
2022-10-21T20:04:44.050Z,23.10
2022-10-21T20:07:13.283Z,21.80
2022-10-21T20:09:44.216Z,22.10
2022-10-21T20:12:13.286Z,22.70
2022-10-21T20:14:44.029Z,21.60
2022-10-21T20:17:16.127Z,19.90
2022-10-21T20:19:52.147Z,20.00
2022-10-21T20:22:22.470Z,20.70
2022-10-21T20:24:52.396Z,20.90
2022-10-21T20:27:21.504Z,20.30
2022-10-21T20:29:52.210Z,19.90
2022-10-21T20:32:23.077Z,20.60
2022-10-21T20:34:53.207Z,22.00
2022-10-21T20:37:22.767Z,19.40
2022-10-21T20:39:51.982Z,19.10
2022-10-21T20:42:21.073Z,19.70
2022-10-21T20:44:50.487Z,20.30
2022-10-21T20:47:19.746Z,19.50
2022-10-21T20:49:49.317Z,19.50
2022-10-21T20:52:19.243Z,19.00
2022-10-21T20:54:49.039Z,19.10
2022-10-21T20:57:21.333Z,18.70
2022-10-21T20:59:49.638Z,19.70
2022-10-21T21:02:18.290Z,20.30
2022-10-21T21:04:47.142Z,18.60
2022-10-21T21:07:17.476Z,18.60
2022-10-21T21:10:01.673Z,18.30
2022-10-21T21:12:32.565Z,18.20
2022-10-21T21:15:01.564Z,18.70
2022-10-21T21:17:30.564Z,17.70
2022-10-21T21:20:00.420Z,17.80
2022-10-21T21:22:29.708Z,16.80
2022-10-21T21:24:59.141Z,17.10
2022-10-21T21:27:29.831Z,16.20
2022-10-21T21:29:58.447Z,16.70
2022-10-21T21:32:28.134Z,16.20
2022-10-21T21:35:00.137Z,15.30
2022-10-21T21:37:31.574Z,15.70
2022-10-21T21:40:01.577Z,16.30
2022-10-21T21:42:31.373Z,16.40
2022-10-21T21:45:00.018Z,15.60
2022-10-21T21:47:29.229Z,14.80
2022-10-21T21:50:00.800Z,16.50
2022-10-21T21:52:29.926Z,15.40
2022-10-21T21:54:58.525Z,16.10
2022-10-21T21:57:29.218Z,15.90
2022-10-21T21:59:57.858Z,16.90
2022-10-21T22:02:26.407Z,16.20
2022-10-21T22:04:54.818Z,16.90
2022-10-21T22:07:22.937Z,17.80
2022-10-21T22:09:51.213Z,18.20
2022-10-21T22:12:23.065Z,17.30
2022-10-21T22:14:52.921Z,18.60
2022-10-21T22:17:21.463Z,20.70
2022-10-21T22:19:53.710Z,20.70
2022-10-21T22:22:22.698Z,19.80
2022-10-21T22:24:51.103Z,20.40
2022-10-21T22:27:19.439Z,21.60
2022-10-21T22:29:48.029Z,21.60
2022-10-21T22:32:18.406Z,21.40
2022-10-21T22:34:46.847Z,21.80
2022-10-21T22:37:16.146Z,22.00
2022-10-21T22:39:44.531Z,20.70
2022-10-21T22:42:12.910Z,21.90
2022-10-21T22:44:41.020Z,20.30
2022-10-21T22:47:09.613Z,22.60
2022-10-21T22:49:38.136Z,20.60
2022-10-21T22:52:06.593Z,20.80
2022-10-21T22:54:49.035Z,21.90
2022-10-21T22:57:18.293Z,21.50
2022-10-21T22:59:52.857Z,20.60
2022-10-21T23:02:22.330Z,21.70
2022-10-21T23:04:50.695Z,21.70
2022-10-21T23:07:18.938Z,20.80
2022-10-21T23:09:47.615Z,20.80
2022-10-21T23:12:15.830Z,22.30
2022-10-21T23:14:44.109Z,22.10
2022-10-21T23:17:13.024Z,20.50
2022-10-21T23:19:41.250Z,21.10
2022-10-21T23:22:10.882Z,22.20
2022-10-21T23:24:38.887Z,21.60
2022-10-21T23:27:07.515Z,22.00
2022-10-21T23:29:36.090Z,21.40
2022-10-21T23:32:04.857Z,22.50
2022-10-21T23:34:32.964Z,21.90
2022-10-21T23:37:01.018Z,20.80
2022-10-21T23:39:29.531Z,21.20
2022-10-21T23:41:57.780Z,22.80
2022-10-21T23:44:29.400Z,22.40
2022-10-21T23:46:57.618Z,19.80
2022-10-21T23:49:25.703Z,22.80
2022-10-21T23:51:54.115Z,22.50
2022-10-21T23:54:22.288Z,20.90
2022-10-21T23:56:50.916Z,20.40
2022-10-21T23:59:19.195Z,21.30
